Time;durP1;ratioP1;P1;durP2;ratioP2;P2;SDS_P1;SDS_P2;PMS_P1;PMS_P2;Temp;Humidity;BMP_temperature;BMP_pressure;BME280_temperature;BME280_humidity;BME280_pressure;Samples;Min_cycle;Max_cycle;Signal;HPM_P1;HPM_P2
2023/08/06 00:00:26;;;;;;;11.45;7.70;;;14.00;99.90;;;;;;4989078;28;20038;-80
2023/08/06 00:02:52;;;;;;;12.52;8.27;;;14.00;99.90;;;;;;5009864;28;20030;-81
2023/08/06 00:05:20;;;;;;;13.38;8.05;;;14.00;99.90;;;;;;4978157;28;20574;-80
2023/08/06 00:07:49;;;;;;;12.70;8.20;;;14.00;99.90;;;;;;5010749;28;20076;-80
2023/08/06 00:10:15;;;;;;;13.80;8.35;;;14.00;99.90;;;;;;4994528;28;20088;-80
2023/08/06 00:12:42;;;;;;;16.85;8.52;;;14.00;99.90;;;;;;5008901;28;20057;-80
2023/08/06 00:15:08;;;;;;;11.45;7.47;;;13.90;99.90;;;;;;4987920;28;20041;-80
2023/08/06 00:17:34;;;;;;;11.48;7.85;;;13.90;99.90;;;;;;4976778;28;20116;-80
2023/08/06 00:20:04;;;;;;;13.15;7.90;;;13.90;99.90;;;;;;5008357;28;20045;-80
2023/08/06 00:22:37;;;;;;;13.10;8.02;;;13.90;99.90;;;;;;4994123;28;20457;-80
2023/08/06 00:25:05;;;;;;;11.10;7.53;;;13.90;99.90;;;;;;4976143;28;20041;-80
2023/08/06 00:27:32;;;;;;;9.18;7.13;;;13.90;99.90;;;;;;5007782;28;20525;-80
2023/08/06 00:29:58;;;;;;;13.30;7.65;;;13.90;99.90;;;;;;4994583;28;20049;-80
2023/08/06 00:32:24;;;;;;;13.10;7.78;;;13.90;99.90;;;;;;4992748;28;20038;-80
2023/08/06 00:34:49;;;;;;;10.55;7.88;;;13.90;99.90;;;;;;4998534;28;20034;-80
2023/08/06 00:37:16;;;;;;;11.40;7.45;;;13.90;99.90;;;;;;4994003;28;20034;-80
2023/08/06 00:39:43;;;;;;;10.70;7.55;;;13.80;99.90;;;;;;4998785;28;20123;-80
2023/08/06 00:42:09;;;;;;;12.70;7.30;;;13.80;99.90;;;;;;4993791;28;20099;-80
2023/08/06 00:44:35;;;;;;;10.65;7.15;;;13.90;99.90;;;;;;5025756;28;20041;-80
2023/08/06 00:47:01;;;;;;;10.75;7.38;;;13.80;99.90;;;;;;4977546;28;20506;-80
2023/08/06 00:49:27;;;;;;;13.02;8.35;;;13.80;99.90;;;;;;5007015;28;20054;-80
2023/08/06 00:51:53;;;;;;;12.48;8.00;;;13.80;99.90;;;;;;4992392;28;20053;-80
2023/08/06 00:54:19;;;;;;;10.23;8.07;;;13.80;99.90;;;;;;4977990;28;20041;-80
2023/08/06 00:56:46;;;;;;;10.27;7.90;;;13.80;99.90;;;;;;4975614;28;20029;-80
2023/08/06 00:59:12;;;;;;;10.07;7.65;;;13.80;99.90;;;;;;4993507;28;20049;-80
2023/08/06 01:01:38;;;;;;;10.98;8.40;;;13.80;99.90;;;;;;4992039;28;20049;-80
2023/08/06 01:04:04;;;;;;;12.63;9.13;;;13.80;99.90;;;;;;4992678;28;20033;-80
2023/08/06 01:06:45;;;;;;;14.20;9.48;;;13.80;99.90;;;;;;5008815;28;20046;-80
2023/08/06 01:09:50;;;;;;;11.00;8.40;;;13.80;99.90;;;;;;5010151;28;20090;-80
2023/08/06 01:12:34;;;;;;;15.35;9.77;;;13.80;99.90;;;;;;5008628;28;20292;-80
2023/08/06 01:15:03;;;;;;;13.82;9.38;;;13.80;99.90;;;;;;5008185;28;20033;-80
2023/08/06 01:17:30;;;;;;;13.73;9.48;;;13.80;99.90;;;;;;5007725;28;20038;-80
2023/08/06 01:19:56;;;;;;;14.57;9.90;;;13.80;99.90;;;;;;5009020;28;20048;-80
2023/08/06 01:22:21;;;;;;;15.77;10.43;;;13.80;99.90;;;;;;4993683;28;20045;-80
2023/08/06 01:24:49;;;;;;;12.93;8.95;;;13.80;99.90;;;;;;5024922;28;20249;-80
2023/08/06 01:27:25;;;;;;;13.65;9.05;;;13.80;99.90;;;;;;5009579;28;20033;-80
2023/08/06 01:30:22;;;;;;;12.85;9.32;;;13.80;99.90;;;;;;5009009;28;20038;-80
2023/08/06 01:32:53;;;;;;;14.40;10.70;;;13.80;99.90;;;;;;4972159;28;20838;-80
2023/08/06 01:35:19;;;;;;;12.18;9.25;;;13.80;99.90;;;;;;5019206;28;20041;-79
2023/08/06 01:37:46;;;;;;;16.88;10.32;;;13.80;99.90;;;;;;5009529;28;20045;-80
2023/08/06 01:40:13;;;;;;;12.43;9.27;;;13.80;99.90;;;;;;5008904;28;20034;-80
2023/08/06 01:42:39;;;;;;;15.30;10.52;;;13.80;99.90;;;;;;5007297;28;20073;-80
2023/08/06 01:45:09;;;;;;;13.77;10.07;;;13.80;99.90;;;;;;5009448;28;20040;-80
2023/08/06 01:47:35;;;;;;;13.60;9.30;;;13.80;99.90;;;;;;5007245;28;20399;-80
2023/08/06 01:50:01;;;;;;;13.23;9.73;;;13.80;99.90;;;;;;4975767;28;20104;-80
2023/08/06 01:52:28;;;;;;;13.70;10.15;;;13.80;99.90;;;;;;5008429;28;20124;-80
2023/08/06 01:54:54;;;;;;;14.23;9.57;;;13.80;99.90;;;;;;5004093;28;20035;-80
2023/08/06 01:57:20;;;;;;;15.82;9.68;;;13.90;99.90;;;;;;4975698;28;20092;-80
2023/08/06 01:59:45;;;;;;;19.23;11.02;;;13.80;99.90;;;;;;5007597;28;20042;-80
2023/08/06 02:02:11;;;;;;;15.27;10.98;;;13.90;99.90;;;;;;5006833;28;20136;-80
2023/08/06 02:04:37;;;;;;;16.25;10.10;;;13.80;99.90;;;;;;5004835;28;20092;-80
2023/08/06 02:07:03;;;;;;;13.95;11.05;;;13.80;99.90;;;;;;4979976;28;20450;-80
2023/08/06 02:09:29;;;;;;;15.32;10.05;;;13.90;99.90;;;;;;4988310;28;20056;-80
2023/08/06 02:11:54;;;;;;;16.45;10.32;;;13.90;99.90;;;;;;4986970;28;20514;-79
2023/08/06 02:14:20;;;;;;;14.05;10.20;;;13.90;99.90;;;;;;5022658;28;20115;-80
2023/08/06 02:16:46;;;;;;;16.70;11.13;;;13.90;99.90;;;;;;5007847;28;20113;-80
2023/08/06 02:19:11;;;;;;;13.40;9.32;;;13.80;99.90;;;;;;4975533;28;20092;-79
2023/08/06 02:21:37;;;;;;;21.13;10.73;;;13.80;99.90;;;;;;5006447;28;20038;-80
2023/08/06 02:24:03;;;;;;;18.10;10.75;;;13.80;99.90;;;;;;5007707;28;20120;-79
2023/08/06 02:26:28;;;;;;;17.38;11.00;;;13.90;99.90;;;;;;4991898;28;20487;-79
2023/08/06 02:28:54;;;;;;;14.20;10.32;;;13.80;99.90;;;;;;5007263;28;20038;-80
2023/08/06 02:31:20;;;;;;;14.23;9.65;;;13.80;99.90;;;;;;5022646;28;20045;-80
2023/08/06 02:33:45;;;;;;;14.70;9.88;;;13.80;99.90;;;;;;4991313;28;20096;-80
2023/08/06 02:36:11;;;;;;;14.23;9.93;;;13.80;99.90;;;;;;5017372;28;20034;-80
2023/08/06 02:38:37;;;;;;;17.25;10.77;;;13.80;99.90;;;;;;4990935;28;20076;-80
2023/08/06 02:41:03;;;;;;;15.05;10.70;;;13.80;99.90;;;;;;4975491;28;20078;-80
2023/08/06 02:43:29;;;;;;;16.75;10.00;;;13.80;99.90;;;;;;5005953;28;20495;-80
2023/08/06 02:46:01;;;;;;;13.23;9.80;;;13.80;99.90;;;;;;5008608;28;20044;-80
2023/08/06 02:48:27;;;;;;;13.95;11.27;;;13.80;99.90;;;;;;5021504;28;21744;-80
2023/08/06 02:50:53;;;;;;;14.60;10.15;;;13.80;99.90;;;;;;4990203;28;20129;-80
2023/08/06 02:53:19;;;;;;;12.82;10.10;;;13.80;99.90;;;;;;5007916;28;20517;-80
2023/08/06 02:55:48;;;;;;;15.25;10.40;;;13.70;99.90;;;;;;4991037;28;20029;-80
2023/08/06 02:58:14;;;;;;;16.20;10.48;;;13.70;99.90;;;;;;4972435;28;20253;-80
2023/08/06 03:00:40;;;;;;;19.25;10.38;;;13.70;99.90;;;;;;5007880;28;20048;-80
2023/08/06 03:03:06;;;;;;;16.42;10.85;;;13.70;99.90;;;;;;4980371;28;20042;-80
2023/08/06 03:05:31;;;;;;;18.65;10.07;;;13.70;99.90;;;;;;4990620;28;20054;-80
2023/08/06 03:07:57;;;;;;;15.48;10.43;;;13.70;99.90;;;;;;4990707;28;20038;-80
2023/08/06 03:10:23;;;;;;;15.48;10.32;;;13.60;99.90;;;;;;4991284;28;20050;-80
2023/08/06 03:12:48;;;;;;;15.00;10.10;;;13.60;99.90;;;;;;4991422;28;20033;-80
2023/08/06 03:15:14;;;;;;;14.95;10.38;;;13.60;99.90;;;;;;4991751;28;20064;-80
2023/08/06 03:17:40;;;;;;;14.43;10.18;;;13.60;99.90;;;;;;4989960;28;20121;-80
2023/08/06 03:20:06;;;;;;;18.60;10.35;;;13.60;99.90;;;;;;4991713;28;20052;-80
2023/08/06 03:22:32;;;;;;;12.88;9.55;;;13.50;99.90;;;;;;5007888;28;20696;-80
2023/08/06 03:24:58;;;;;;;16.38;10.10;;;13.50;99.90;;;;;;5005879;28;20513;-80
2023/08/06 03:27:23;;;;;;;14.30;9.20;;;13.40;99.90;;;;;;4984779;28;20098;-80
2023/08/06 03:29:52;;;;;;;13.48;9.05;;;13.40;99.90;;;;;;4991175;28;20041;-80
2023/08/06 03:32:18;;;;;;;12.70;10.20;;;13.40;99.90;;;;;;4990341;28;20037;-80
2023/08/06 03:34:44;;;;;;;16.80;10.68;;;13.30;99.90;;;;;;4987593;28;20042;-80
2023/08/06 03:37:09;;;;;;;22.85;10.52;;;13.30;99.90;;;;;;4978396;28;20038;-80
2023/08/06 03:39:35;;;;;;;15.45;10.68;;;13.30;99.90;;;;;;5026931;28;20038;-80
2023/08/06 03:42:01;;;;;;;17.17;10.32;;;13.30;99.90;;;;;;4995549;28;20406;-80
2023/08/06 03:44:28;;;;;;;17.75;10.52;;;13.20;99.90;;;;;;5010760;28;20034;-80
2023/08/06 03:46:53;;;;;;;12.80;10.07;;;13.20;99.90;;;;;;4970486;28;20044;-80
2023/08/06 03:49:19;;;;;;;18.00;10.93;;;13.20;99.90;;;;;;5009207;28;20054;-80
2023/08/06 03:51:45;;;;;;;17.00;11.38;;;13.10;99.90;;;;;;4988356;28;20120;-80
2023/08/06 03:54:11;;;;;;;15.98;11.23;;;13.10;99.90;;;;;;5007933;28;20077;-80
2023/08/06 03:56:37;;;;;;;17.25;11.68;;;13.10;99.90;;;;;;5008134;28;20123;-79
2023/08/06 03:59:02;;;;;;;19.83;11.68;;;13.10;99.90;;;;;;4978170;28;20052;-79
2023/08/06 04:01:28;;;;;;;13.95;10.23;;;13.20;99.90;;;;;;4993763;28;20116;-79
2023/08/06 04:03:54;;;;;;;18.92;11.25;;;13.10;99.90;;;;;;4993773;28;20041;-79
2023/08/06 04:06:19;;;;;;;16.42;11.10;;;13.20;99.90;;;;;;4993668;28;20053;-79
2023/08/06 04:08:45;;;;;;;17.88;11.00;;;13.10;99.90;;;;;;4987838;28;20044;-79
2023/08/06 04:11:12;;;;;;;19.40;11.50;;;13.10;99.90;;;;;;4994698;28;20049;-79
2023/08/06 04:13:37;;;;;;;13.30;10.43;;;13.10;99.90;;;;;;4992685;28;20056;-79
2023/08/06 04:16:04;;;;;;;18.45;11.65;;;13.10;99.90;;;;;;5010657;28;20033;-79
2023/08/06 04:18:29;;;;;;;17.48;11.77;;;13.10;99.90;;;;;;4999742;28;20061;-79
2023/08/06 04:20:57;;;;;;;15.30;11.32;;;13.10;99.90;;;;;;5007676;28;20038;-79
2023/08/06 04:23:23;;;;;;;16.67;10.82;;;13.10;99.90;;;;;;5011256;28;20312;-78
2023/08/06 04:25:48;;;;;;;15.52;11.00;;;13.10;99.90;;;;;;5006891;28;20038;-79
2023/08/06 04:28:14;;;;;;;19.02;11.00;;;13.10;99.90;;;;;;4989363;28;20049;-78
2023/08/06 04:30:40;;;;;;;18.63;11.88;;;13.10;99.90;;;;;;4996148;28;20084;-78
2023/08/06 04:33:05;;;;;;;20.48;12.00;;;13.10;99.90;;;;;;5013263;28;20042;-78
2023/08/06 04:35:31;;;;;;;15.57;11.00;;;13.10;99.90;;;;;;5006381;28;20045;-78
2023/08/06 04:37:57;;;;;;;20.60;11.38;;;13.20;99.90;;;;;;5013159;28;20038;-78
2023/08/06 04:40:23;;;;;;;17.58;10.95;;;13.20;99.90;;;;;;5013112;28;20059;-78
2023/08/06 04:42:48;;;;;;;17.83;11.63;;;13.20;99.90;;;;;;5012421;28;20099;-78
2023/08/06 04:45:14;;;;;;;17.50;11.00;;;13.20;99.90;;;;;;5010657;28;20139;-78
2023/08/06 04:47:39;;;;;;;19.98;12.25;;;13.20;99.90;;;;;;4974796;28;20430;-78
2023/08/06 04:50:06;;;;;;;16.17;10.93;;;13.20;99.90;;;;;;4988467;28;20058;-78
2023/08/06 04:52:32;;;;;;;16.20;10.80;;;13.30;99.90;;;;;;5009674;28;20033;-79
2023/08/06 04:54:57;;;;;;;18.42;11.55;;;13.30;99.90;;;;;;5024267;28;20042;-78
2023/08/06 04:57:23;;;;;;;17.98;11.93;;;13.30;99.90;;;;;;5009425;28;20030;-78
2023/08/06 04:59:49;;;;;;;21.58;14.40;;;13.30;99.90;;;;;;4991745;28;20114;-78
2023/08/06 05:02:15;;;;;;;18.67;12.52;;;13.30;99.90;;;;;;5004142;28;20042;-78
2023/08/06 05:04:40;;;;;;;20.48;12.80;;;13.40;99.90;;;;;;4975361;28;20038;-77
2023/08/06 05:07:06;;;;;;;19.40;13.90;;;13.40;99.90;;;;;;4993892;28;20050;-78
2023/08/06 05:09:32;;;;;;;23.55;14.43;;;13.50;99.90;;;;;;4992513;28;20033;-78
2023/08/06 05:12:00;;;;;;;20.75;13.73;;;13.50;99.90;;;;;;4976484;28;20479;-78
2023/08/06 05:14:26;;;;;;;21.90;14.00;;;13.50;99.90;;;;;;5008752;28;20072;-78
2023/08/06 05:16:51;;;;;;;21.35;13.32;;;13.50;99.90;;;;;;4992810;28;20083;-78
2023/08/06 05:19:17;;;;;;;19.70;13.55;;;13.60;99.90;;;;;;5008126;28;20041;-78
2023/08/06 05:21:42;;;;;;;19.67;12.73;;;13.60;99.90;;;;;;4992770;28;20034;-78
2023/08/06 05:24:08;;;;;;;21.90;13.35;;;13.70;99.90;;;;;;4991640;28;20475;-78
2023/08/06 05:26:34;;;;;;;19.55;12.75;;;13.70;99.90;;;;;;5011482;28;20778;-77
2023/08/06 05:29:01;;;;;;;20.85;14.27;;;13.70;99.90;;;;;;4985792;28;20073;-78
2023/08/06 05:31:28;;;;;;;19.65;13.15;;;13.70;99.90;;;;;;4998035;28;20096;-78
2023/08/06 05:33:54;;;;;;;18.80;12.00;;;13.70;99.90;;;;;;5008694;28;21593;-78
2023/08/06 05:36:21;;;;;;;19.30;13.25;;;13.80;99.90;;;;;;5022272;28;20088;-79
2023/08/06 05:38:46;;;;;;;23.70;13.70;;;13.80;99.90;;;;;;4991324;28;20095;-78
2023/08/06 05:41:12;;;;;;;23.63;14.15;;;13.80;99.90;;;;;;4982991;28;20511;-78
2023/08/06 05:43:38;;;;;;;22.55;13.65;;;13.80;99.90;;;;;;4992672;28;20099;-78
2023/08/06 05:46:04;;;;;;;20.90;13.50;;;13.90;99.90;;;;;;4974821;28;20057;-78
2023/08/06 05:48:29;;;;;;;19.38;12.65;;;13.90;99.90;;;;;;5007895;28;20411;-77
2023/08/06 05:50:55;;;;;;;20.58;13.10;;;14.00;99.90;;;;;;5005937;28;20050;-77
2023/08/06 05:53:21;;;;;;;17.90;12.43;;;14.00;99.90;;;;;;4991007;28;20507;-77
2023/08/06 05:55:47;;;;;;;19.05;12.75;;;14.00;99.90;;;;;;5007112;28;20049;-78
2023/08/06 05:58:13;;;;;;;26.25;13.65;;;14.00;99.90;;;;;;4991720;28;20503;-77
2023/08/06 06:00:39;;;;;;;21.45;13.10;;;14.10;99.90;;;;;;4991181;28;20056;-77
2023/08/06 06:03:04;;;;;;;17.80;12.90;;;14.10;99.90;;;;;;5007915;28;20091;-77
2023/08/06 06:05:30;;;;;;;16.33;11.82;;;14.10;99.90;;;;;;4990227;28;20161;-77
2023/08/06 06:07:56;;;;;;;22.75;13.50;;;14.10;99.90;;;;;;5006107;28;20034;-77
2023/08/06 06:10:21;;;;;;;21.25;12.60;;;14.10;99.90;;;;;;5005902;28;20049;-77
2023/08/06 06:12:47;;;;;;;20.42;13.18;;;14.20;99.90;;;;;;5007516;28;20042;-77
2023/08/06 06:15:13;;;;;;;20.75;13.27;;;14.30;99.90;;;;;;5008928;28;20084;-77
2023/08/06 06:17:39;;;;;;;19.20;12.43;;;14.30;99.90;;;;;;5011364;28;20058;-77
2023/08/06 06:20:05;;;;;;;17.08;12.35;;;14.30;99.90;;;;;;5035773;28;20041;-78
2023/08/06 06:22:31;;;;;;;17.70;12.60;;;14.40;99.90;;;;;;5030465;28;21345;-77
2023/08/06 06:24:56;;;;;;;20.25;12.55;;;14.40;99.90;;;;;;4991926;28;20089;-77
2023/08/06 06:27:22;;;;;;;16.60;12.43;;;14.50;99.90;;;;;;5008975;28;20045;-78
2023/08/06 06:29:48;;;;;;;15.55;11.38;;;14.50;99.90;;;;;;4985518;28;20120;-78
2023/08/06 06:32:13;;;;;;;14.82;11.52;;;14.50;99.90;;;;;;4991021;28;20069;-78
2023/08/06 06:34:39;;;;;;;17.00;12.05;;;14.60;99.90;;;;;;4975585;28;20038;-78
2023/08/06 06:37:05;;;;;;;15.55;11.77;;;14.60;99.90;;;;;;5008343;28;20044;-78
2023/08/06 06:39:31;;;;;;;14.48;10.52;;;14.60;99.90;;;;;;4993034;28;20053;-78
2023/08/06 06:41:56;;;;;;;16.45;10.90;;;14.60;99.90;;;;;;5006256;28;20113;-78
2023/08/06 06:44:22;;;;;;;19.00;11.85;;;14.60;99.90;;;;;;5000897;28;20040;-78
2023/08/06 06:46:48;;;;;;;17.83;11.38;;;14.60;99.90;;;;;;5002046;28;20427;-78
2023/08/06 06:49:14;;;;;;;13.40;10.35;;;14.50;99.90;;;;;;4986614;28;20058;-78
2023/08/06 06:51:39;;;;;;;13.52;11.00;;;14.50;99.90;;;;;;4990199;28;20045;-78
2023/08/06 06:54:05;;;;;;;13.48;10.48;;;14.50;99.90;;;;;;5007778;28;20068;-78
2023/08/06 06:56:31;;;;;;;14.63;11.23;;;14.60;99.90;;;;;;4971964;28;20060;-76
2023/08/06 06:58:56;;;;;;;18.38;11.23;;;14.60;99.90;;;;;;5009494;28;20065;-77
2023/08/06 07:01:22;;;;;;;14.55;11.55;;;14.60;99.90;;;;;;4981468;28;20057;-77
2023/08/06 07:03:48;;;;;;;15.55;10.60;;;14.70;99.90;;;;;;4991103;28;20042;-77
2023/08/06 07:06:15;;;;;;;17.15;10.23;;;14.70;99.90;;;;;;5006898;28;20049;-77
2023/08/06 07:08:41;;;;;;;15.55;11.30;;;14.70;99.90;;;;;;5013807;28;20041;-77
2023/08/06 07:11:07;;;;;;;13.98;10.55;;;14.80;99.90;;;;;;5009536;28;20507;-77
2023/08/06 07:13:34;;;;;;;14.70;11.02;;;14.80;99.90;;;;;;4993623;28;20492;-77
2023/08/06 07:16:00;;;;;;;13.55;10.48;;;14.80;99.90;;;;;;5006711;28;20044;-77
2023/08/06 07:18:26;;;;;;;15.85;10.55;;;14.90;99.90;;;;;;4996701;28;20041;-77
2023/08/06 07:20:53;;;;;;;13.77;10.57;;;14.90;99.90;;;;;;5010221;28;20037;-77
2023/08/06 07:23:21;;;;;;;13.27;10.82;;;15.00;99.90;;;;;;4994840;28;20091;-77
2023/08/06 07:25:47;;;;;;;14.85;9.98;;;15.00;99.90;;;;;;5010142;28;20042;-77
2023/08/06 07:28:13;;;;;;;16.25;10.27;;;15.10;99.90;;;;;;5004123;28;20038;-77
2023/08/06 07:30:40;;;;;;;12.52;10.05;;;15.10;99.90;;;;;;5010201;28;20034;-77
2023/08/06 07:33:06;;;;;;;11.00;9.40;;;15.20;99.90;;;;;;5010110;28;20069;-77
2023/08/06 07:35:32;;;;;;;14.45;9.88;;;15.20;99.90;;;;;;5010313;28;20399;-77
2023/08/06 07:37:58;;;;;;;11.18;9.60;;;15.30;99.90;;;;;;4992331;28;20037;-77
2023/08/06 07:40:24;;;;;;;13.50;9.15;;;15.30;99.90;;;;;;4992000;28;20492;-77
2023/08/06 07:42:49;;;;;;;13.30;9.95;;;15.40;99.90;;;;;;5008956;28;20041;-77
2023/08/06 07:45:15;;;;;;;13.60;9.88;;;15.40;99.90;;;;;;4994757;28;20042;-77
2023/08/06 07:47:42;;;;;;;12.77;10.15;;;15.50;99.90;;;;;;4993818;28;20045;-77
2023/08/06 07:50:08;;;;;;;12.38;10.57;;;15.50;99.90;;;;;;5006405;28;20050;-77
2023/08/06 07:52:34;;;;;;;11.82;9.85;;;15.60;99.90;;;;;;5005796;28;20049;-77
2023/08/06 07:55:01;;;;;;;13.27;9.88;;;15.60;99.90;;;;;;5010798;28;20042;-77
2023/08/06 07:57:27;;;;;;;10.55;8.70;;;15.60;99.90;;;;;;4979200;28;20041;-77
2023/08/06 07:59:53;;;;;;;14.38;9.63;;;15.70;99.90;;;;;;5010974;28;20042;-77
2023/08/06 08:02:19;;;;;;;14.50;9.98;;;15.70;99.90;;;;;;4977254;28;20152;-77
2023/08/06 08:04:47;;;;;;;11.65;10.13;;;15.70;99.90;;;;;;5026397;28;20140;-77
2023/08/06 08:07:13;;;;;;;11.93;10.02;;;15.80;99.90;;;;;;5002248;28;20038;-77
2023/08/06 08:09:39;;;;;;;11.27;9.52;;;15.80;99.90;;;;;;4990806;28;20052;-77
2023/08/06 08:12:05;;;;;;;11.60;9.27;;;15.80;99.90;;;;;;4994513;28;20037;-77
2023/08/06 08:14:35;;;;;;;10.18;9.07;;;15.90;99.90;;;;;;5010603;28;20042;-77
2023/08/06 08:17:05;;;;;;;11.60;9.77;;;15.90;99.90;;;;;;5010924;28;20430;-77
2023/08/06 08:19:32;;;;;;;12.82;9.93;;;16.00;99.90;;;;;;5001099;28;20060;-78
2023/08/06 08:21:58;;;;;;;11.13;9.68;;;16.10;99.90;;;;;;5010712;28;20060;-78
2023/08/06 08:24:23;;;;;;;11.35;9.65;;;16.10;99.90;;;;;;5014389;28;20034;-77
2023/08/06 08:26:53;;;;;;;12.07;9.10;;;16.10;99.90;;;;;;4977472;28;20129;-77
2023/08/06 08:29:19;;;;;;;14.35;9.18;;;16.20;99.90;;;;;;4998146;28;20046;-77
2023/08/06 08:31:45;;;;;;;12.25;9.48;;;16.30;99.90;;;;;;4997102;28;20033;-78
2023/08/06 08:34:11;;;;;;;11.85;9.77;;;16.40;99.90;;;;;;5014325;28;20087;-78
2023/08/06 08:36:37;;;;;;;11.45;10.23;;;16.40;99.90;;;;;;4981356;28;20403;-78
2023/08/06 08:39:04;;;;;;;13.30;10.43;;;16.40;99.90;;;;;;5014465;28;20502;-78
2023/08/06 08:41:31;;;;;;;12.05;9.77;;;16.50;99.90;;;;;;5013713;28;20042;-78
2023/08/06 08:44:02;;;;;;;9.90;8.88;;;16.60;99.90;;;;;;4987395;28;20046;-78
2023/08/06 08:46:32;;;;;;;11.63;9.95;;;16.70;99.90;;;;;;5013967;28;20038;-78
2023/08/06 08:48:59;;;;;;;12.10;9.27;;;16.80;99.90;;;;;;5013564;28;20193;-78
2023/08/06 08:51:27;;;;;;;13.07;8.02;;;16.90;99.90;;;;;;5012953;28;20503;-77
2023/08/06 08:53:56;;;;;;;9.95;8.20;;;17.00;99.90;;;;;;5013488;28;20080;-77
2023/08/06 08:56:22;;;;;;;9.40;8.32;;;17.00;99.90;;;;;;5013363;28;20038;-77
2023/08/06 08:58:48;;;;;;;9.52;8.52;;;17.10;99.90;;;;;;5013648;28;20491;-77
2023/08/06 09:01:15;;;;;;;8.85;7.95;;;17.10;99.90;;;;;;4980910;28;20515;-77
2023/08/06 09:03:43;;;;;;;9.23;7.68;;;17.20;99.90;;;;;;5013603;28;20052;-77
2023/08/06 09:06:11;;;;;;;8.65;7.63;;;17.20;99.90;;;;;;5012707;28;20045;-77
2023/08/06 09:08:43;;;;;;;8.90;8.00;;;17.20;99.90;;;;;;4995875;28;20038;-77
2023/08/06 09:11:12;;;;;;;11.47;7.70;;;17.30;99.90;;;;;;5013387;28;20041;-77
2023/08/06 09:13:38;;;;;;;11.82;8.13;;;17.30;99.90;;;;;;5011138;28;20045;-77
2023/08/06 09:16:04;;;;;;;9.93;7.78;;;17.40;99.90;;;;;;4994961;28;20030;-77
2023/08/06 09:18:31;;;;;;;11.98;7.93;;;17.50;99.90;;;;;;4994637;28;20085;-77
2023/08/06 09:20:57;;;;;;;10.73;7.50;;;17.60;99.90;;;;;;4996314;28;20050;-77
2023/08/06 09:23:31;;;;;;;10.95;7.47;;;17.70;99.90;;;;;;4994543;28;20041;-77
2023/08/06 09:26:01;;;;;;;10.05;7.75;;;17.70;99.90;;;;;;4989398;28;20034;-77
2023/08/06 09:28:42;;;;;;;8.55;7.32;;;17.80;99.90;;;;;;4996752;28;20499;-77
2023/08/06 09:31:08;;;;;;;10.70;7.97;;;17.90;99.90;;;;;;5016400;28;20033;-76
2023/08/06 09:33:36;;;;;;;9.85;7.72;;;17.90;99.90;;;;;;5012407;28;20046;-76
2023/08/06 09:36:09;;;;;;;10.32;7.55;;;18.00;99.90;;;;;;4978766;28;20037;-77
2023/08/06 09:38:39;;;;;;;8.98;7.43;;;18.00;99.90;;;;;;4996586;28;20049;-77
2023/08/06 09:41:05;;;;;;;8.73;7.82;;;18.00;99.90;;;;;;5012735;28;20121;-77
2023/08/06 09:43:40;;;;;;;8.18;6.35;;;18.10;99.90;;;;;;5012951;28;20141;-77
2023/08/06 09:46:14;;;;;;;8.90;7.22;;;18.20;99.90;;;;;;5009224;28;20066;-77
2023/08/06 09:48:40;;;;;;;7.93;6.53;;;18.30;99.90;;;;;;4986328;28;20061;-77
2023/08/06 09:51:08;;;;;;;9.18;7.43;;;18.30;99.90;;;;;;5009042;28;20048;-77
2023/08/06 09:53:35;;;;;;;11.35;6.70;;;18.30;99.90;;;;;;4994564;28;20041;-77
2023/08/06 09:56:01;;;;;;;10.68;7.10;;;18.30;99.90;;;;;;5012609;28;20080;-77
2023/08/06 09:58:27;;;;;;;7.78;6.60;;;18.30;99.90;;;;;;4996046;28;20066;-77
2023/08/06 10:00:53;;;;;;;10.05;6.90;;;18.30;99.90;;;;;;4995670;28;20125;-77
2023/08/06 10:03:19;;;;;;;10.38;6.30;;;18.30;99.90;;;;;;4996560;28;20049;-77
2023/08/06 10:05:45;;;;;;;7.10;6.43;;;18.40;99.90;;;;;;5012704;28;20050;-77
2023/08/06 10:08:11;;;;;;;6.63;5.93;;;18.50;99.90;;;;;;5008602;28;20130;-77
2023/08/06 10:10:37;;;;;;;7.28;6.13;;;18.60;99.90;;;;;;5012001;28;20508;-77
2023/08/06 10:13:04;;;;;;;7.90;6.15;;;18.70;99.90;;;;;;4995967;28;20049;-77
2023/08/06 10:15:32;;;;;;;7.85;6.10;;;18.70;99.90;;;;;;5027854;28;20073;-77
2023/08/06 10:18:00;;;;;;;7.20;6.45;;;18.90;99.90;;;;;;5011899;28;20042;-77
2023/08/06 10:20:26;;;;;;;6.55;5.82;;;19.00;99.90;;;;;;5011792;28;20041;-77
2023/08/06 10:23:03;;;;;;;6.05;5.38;;;19.10;99.90;;;;;;5011396;28;20042;-77
2023/08/06 10:25:39;;;;;;;8.27;5.93;;;19.30;99.90;;;;;;5010857;28;20638;-77
2023/08/06 10:28:11;;;;;;;8.43;6.47;;;19.30;99.90;;;;;;4991135;28;20530;-77
2023/08/06 10:30:47;;;;;;;6.63;5.30;;;19.40;99.90;;;;;;5007585;28;20109;-77
2023/08/06 10:33:12;;;;;;;13.23;6.18;;;19.50;99.90;;;;;;5008075;28;20072;-77
2023/08/06 10:35:49;;;;;;;9.90;5.63;;;19.70;99.90;;;;;;4991023;28;20081;-77
2023/08/06 10:38:17;;;;;;;6.38;5.07;;;19.70;99.90;;;;;;4987350;28;20045;-77
2023/08/06 10:40:48;;;;;;;5.68;4.85;;;19.90;99.90;;;;;;5022854;28;20069;-77
2023/08/06 10:43:28;;;;;;;7.77;6.27;;;19.90;99.90;;;;;;5010176;28;20518;-76
2023/08/06 10:45:55;;;;;;;5.88;5.28;;;19.90;99.90;;;;;;4994409;28;20346;-76
2023/08/06 10:48:39;;;;;;;5.70;5.10;;;20.00;99.90;;;;;;5004282;28;20097;-77
2023/08/06 10:51:13;;;;;;;5.72;5.20;;;20.00;99.90;;;;;;4975591;28;20380;-77
2023/08/06 10:53:43;;;;;;;6.13;5.53;;;20.00;99.90;;;;;;4978020;28;20069;-77
2023/08/06 10:56:14;;;;;;;6.10;5.18;;;19.90;99.90;;;;;;4984421;28;20471;-77
2023/08/06 10:58:40;;;;;;;5.18;4.68;;;19.90;99.90;;;;;;4981337;28;20467;-76
2023/08/06 11:01:06;;;;;;;5.10;4.60;;;20.10;99.90;;;;;;4988180;28;20197;-76
2023/08/06 11:03:33;;;;;;;5.32;4.82;;;20.10;99.90;;;;;;4947692;28;20049;-76
2023/08/06 11:05:58;;;;;;;6.75;4.55;;;20.10;99.90;;;;;;4989486;28;20260;-76
2023/08/06 11:08:28;;;;;;;6.60;4.72;;;20.00;99.90;;;;;;4976298;28;21275;-76
2023/08/06 11:10:54;;;;;;;5.50;4.75;;;19.90;99.90;;;;;;4989909;28;20100;-76
2023/08/06 11:13:21;;;;;;;6.60;5.00;;;19.80;99.90;;;;;;4948074;28;20038;-76
2023/08/06 11:15:47;;;;;;;6.22;4.55;;;19.80;99.90;;;;;;4991357;28;20542;-76
2023/08/06 11:18:13;;;;;;;4.05;3.65;;;19.80;99.90;;;;;;4981641;28;20034;-76
2023/08/06 11:20:39;;;;;;;4.07;3.67;;;19.60;99.90;;;;;;4979454;28;20484;-76
2023/08/06 11:23:05;;;;;;;5.13;3.95;;;19.60;99.90;;;;;;4975941;28;20519;-77
2023/08/06 11:25:36;;;;;;;5.30;4.07;;;19.50;99.90;;;;;;4958371;28;20088;-77
2023/08/06 11:28:01;;;;;;;4.18;3.75;;;19.40;99.90;;;;;;4963736;28;20464;-77
2023/08/06 11:30:27;;;;;;;4.03;3.63;;;19.30;99.90;;;;;;4961914;28;20125;-77
2023/08/06 11:32:52;;;;;;;4.22;3.70;;;19.20;99.90;;;;;;4978582;28;20040;-77
2023/08/06 11:35:18;;;;;;;4.88;3.75;;;19.20;99.90;;;;;;4961164;28;20133;-76
2023/08/06 11:37:47;;;;;;;7.88;3.40;;;19.20;99.90;;;;;;4957431;28;20038;-76
2023/08/06 11:40:15;;;;;;;9.65;4.03;;;19.20;99.90;;;;;;4970618;28;20046;-76
2023/08/06 11:42:42;;;;;;;3.83;3.38;;;19.20;99.90;;;;;;4975015;28;20042;-77
2023/08/06 11:45:09;;;;;;;3.97;3.45;;;19.20;99.90;;;;;;4975287;28;20053;-77
2023/08/06 11:47:39;;;;;;;3.85;2.80;;;19.20;99.90;;;;;;4943394;28;20518;-77
2023/08/06 11:50:05;;;;;;;4.25;3.28;;;19.30;99.90;;;;;;4965363;28;20046;-77
2023/08/06 11:52:31;;;;;;;4.25;3.05;;;19.20;99.90;;;;;;4979279;28;20038;-77
2023/08/06 11:55:10;;;;;;;3.58;3.28;;;19.20;99.90;;;;;;4978308;28;20034;-77
2023/08/06 11:57:36;;;;;;;4.38;2.70;;;19.20;99.90;;;;;;4964817;28;20113;-77
2023/08/06 12:00:23;;;;;;;3.92;2.75;;;19.20;99.90;;;;;;4987144;28;20053;-77
2023/08/06 12:02:51;;;;;;;4.00;2.65;;;19.20;99.90;;;;;;4964575;28;20503;-77
2023/08/06 12:05:23;;;;;;;3.50;2.38;;;19.30;99.90;;;;;;4968701;28;20037;-77
2023/08/06 12:07:57;;;;;;;4.45;2.50;;;19.30;99.90;;;;;;4984905;28;20103;-75
2023/08/06 12:10:24;;;;;;;3.10;2.42;;;19.30;99.90;;;;;;4982092;28;20042;-77
2023/08/06 12:12:50;;;;;;;3.22;2.20;;;19.30;99.90;;;;;;4990066;28;20488;-77
2023/08/06 12:15:16;;;;;;;4.30;2.40;;;19.30;99.90;;;;;;4966681;28;20041;-77
2023/08/06 12:17:42;;;;;;;3.80;2.17;;;19.30;99.90;;;;;;4985775;28;20030;-78
2023/08/06 12:20:09;;;;;;;2.85;2.38;;;19.40;99.90;;;;;;4983349;28;20038;-77
2023/08/06 12:22:37;;;;;;;3.72;2.40;;;19.40;99.90;;;;;;4992629;28;20076;-78
2023/08/06 12:25:08;;;;;;;2.40;2.20;;;19.50;99.90;;;;;;4979951;28;20042;-78
2023/08/06 12:27:37;;;;;;;3.38;2.50;;;19.60;99.90;;;;;;4973342;28;20050;-78
2023/08/06 12:30:04;;;;;;;3.45;2.13;;;19.70;99.90;;;;;;4988138;28;20127;-77
2023/08/06 12:32:30;;;;;;;3.00;1.98;;;19.70;99.90;;;;;;4949926;28;20284;-78
2023/08/06 12:34:56;;;;;;;2.60;2.25;;;19.80;99.90;;;;;;5002710;28;20042;-77